createdAt,value
2019-04-05T00:01:34.629Z,6.62
2019-04-05T00:04:03.401Z,6.72
2019-04-05T00:06:32.186Z,6.83
2019-04-05T00:09:00.974Z,7.20
2019-04-05T00:11:30.690Z,6.47
2019-04-05T00:13:59.958Z,6.92
2019-04-05T00:16:28.792Z,7.17
2019-04-05T00:18:57.614Z,6.65
2019-04-05T00:21:26.508Z,7.25
2019-04-05T00:23:55.374Z,7.20
2019-04-05T00:26:24.290Z,6.75
2019-04-05T00:28:53.079Z,5.85
2019-04-05T00:31:21.843Z,6.90
2019-04-05T00:33:50.666Z,7.08
2019-04-05T00:36:20.561Z,7.12
2019-04-05T00:38:49.364Z,6.58
2019-04-05T00:41:18.146Z,6.70
2019-04-05T00:43:46.990Z,6.62
2019-04-05T00:46:17.787Z,6.97
2019-04-05T00:48:46.716Z,6.72
2019-04-05T00:51:18.217Z,6.70
2019-04-05T00:53:47.078Z,6.80
2019-04-05T00:56:15.954Z,6.40
2019-04-05T00:58:44.739Z,6.47
2019-04-05T01:01:13.690Z,6.40
2019-04-05T01:03:42.923Z,5.80
2019-04-05T01:06:11.770Z,6.05
2019-04-05T01:08:40.599Z,6.53
2019-04-05T01:11:09.546Z,6.58
2019-04-05T01:13:38.647Z,6.83
2019-04-05T01:16:07.709Z,5.50
2019-04-05T01:18:36.527Z,7.28
2019-04-05T01:21:05.828Z,6.78
2019-04-05T01:23:35.834Z,6.35
2019-04-05T01:26:04.928Z,6.42
2019-04-05T01:28:34.251Z,6.15
2019-04-05T01:31:04.294Z,6.95
2019-04-05T01:33:33.173Z,6.90
2019-04-05T01:36:02.054Z,6.40
2019-04-05T01:38:31.531Z,7.42
2019-04-05T01:41:00.715Z,6.75
2019-04-05T01:43:29.632Z,6.15
2019-04-05T01:45:59.200Z,6.85
2019-04-05T01:48:28.019Z,7.00
2019-04-05T01:50:56.853Z,6.62
2019-04-05T01:53:25.643Z,6.50
2019-04-05T01:55:54.468Z,7.12
2019-04-05T01:58:23.253Z,6.90
2019-04-05T02:00:52.040Z,7.37
2019-04-05T02:03:20.994Z,6.62
2019-04-05T02:05:49.782Z,7.00
2019-04-05T02:08:18.613Z,6.92
2019-04-05T02:10:47.578Z,7.37
2019-04-05T02:13:16.941Z,7.42
2019-04-05T02:15:46.054Z,7.70
2019-04-05T02:18:14.835Z,7.12
2019-04-05T02:20:43.710Z,7.42
2019-04-05T02:23:12.524Z,7.15
2019-04-05T02:25:41.304Z,7.65
2019-04-05T02:28:10.136Z,7.03
2019-04-05T02:30:39.706Z,7.17
2019-04-05T02:33:08.550Z,7.03
2019-04-05T02:35:39.079Z,7.50
2019-04-05T02:38:07.753Z,8.15
2019-04-05T02:40:39.612Z,7.83
2019-04-05T02:43:09.407Z,7.70
2019-04-05T02:45:39.829Z,8.70
2019-04-05T02:48:11.204Z,7.72
2019-04-05T02:50:42.960Z,8.10
2019-04-05T02:53:13.221Z,8.08
2019-04-05T02:55:43.215Z,8.33
2019-04-05T02:58:13.946Z,7.92
2019-04-05T03:00:45.175Z,8.43
2019-04-05T03:03:15.295Z,8.23
2019-04-05T03:05:46.443Z,8.45
2019-04-05T03:08:16.929Z,8.20
2019-04-05T03:11:03.316Z,8.75
2019-04-05T03:13:35.064Z,8.60
2019-04-05T03:16:07.743Z,9.03
2019-04-05T03:18:39.496Z,9.13
2019-04-05T03:21:09.843Z,9.53
2019-04-05T03:23:41.554Z,9.55
2019-04-05T03:26:13.351Z,9.58
2019-04-05T03:28:44.216Z,10.23
2019-04-05T03:31:13.441Z,9.00
2019-04-05T03:33:42.312Z,9.38
2019-04-05T03:36:11.322Z,9.80
2019-04-05T03:38:41.071Z,10.65
2019-04-05T03:41:10.627Z,10.25
2019-04-05T03:43:40.279Z,9.85
2019-04-05T03:46:09.573Z,9.20
2019-04-05T03:48:38.841Z,9.73
2019-04-05T03:51:08.446Z,9.93
2019-04-05T03:53:37.684Z,10.28
2019-04-05T03:56:06.626Z,9.43
2019-04-05T03:58:35.823Z,9.23
2019-04-05T04:01:04.711Z,9.93
2019-04-05T04:03:34.618Z,9.88
2019-04-05T04:06:03.796Z,9.45
2019-04-05T04:08:34.150Z,9.75
2019-04-05T04:11:03.494Z,8.95
2019-04-05T04:13:32.650Z,9.18
2019-04-05T04:16:02.342Z,9.73
2019-04-05T04:18:31.525Z,10.88
2019-04-05T04:21:04.405Z,10.18
2019-04-05T04:23:33.373Z,9.35
2019-04-05T04:26:03.171Z,10.98
2019-04-05T04:28:33.401Z,10.80
2019-04-05T04:31:03.271Z,10.72
2019-04-05T04:33:33.149Z,11.38
2019-04-05T04:36:03.387Z,10.90
2019-04-05T04:38:32.844Z,10.75
2019-04-05T04:41:03.510Z,11.68
2019-04-05T04:43:32.701Z,10.43
2019-04-05T04:46:01.872Z,11.12
2019-04-05T04:48:30.647Z,10.20
2019-04-05T04:50:59.891Z,8.93
2019-04-05T04:53:29.269Z,9.28
2019-04-05T04:55:58.620Z,9.88
2019-04-05T04:58:28.154Z,9.55
2019-04-05T05:00:58.829Z,9.90
2019-04-05T05:03:28.008Z,10.60
2019-04-05T05:05:57.005Z,9.85
2019-04-05T05:08:25.894Z,10.90
2019-04-05T05:10:55.788Z,10.43
2019-04-05T05:13:24.543Z,10.05
2019-04-05T05:15:53.972Z,10.48
2019-04-05T05:18:23.420Z,11.05
2019-04-05T05:20:52.729Z,10.70
2019-04-05T05:23:21.642Z,10.00
2019-04-05T05:25:52.377Z,10.55
2019-04-05T05:28:21.251Z,10.78
2019-04-05T05:30:50.645Z,10.70
2019-04-05T05:33:19.407Z,10.63
2019-04-05T05:35:48.355Z,10.68
2019-04-05T05:38:17.306Z,10.82
2019-04-05T05:40:46.101Z,11.95
2019-04-05T05:43:36.539Z,11.12
2019-04-05T05:46:07.266Z,12.28
2019-04-05T05:48:36.512Z,10.98
2019-04-05T05:51:05.352Z,11.18
2019-04-05T05:53:34.559Z,10.68
2019-04-05T05:56:04.082Z,10.78
2019-04-05T05:58:32.922Z,11.18
2019-04-05T06:01:01.850Z,10.58
2019-04-05T06:03:30.634Z,9.80
2019-04-05T06:06:04.499Z,10.55
2019-04-05T06:08:31.375Z,10.80
2019-04-05T06:11:00.689Z,10.82
2019-04-05T06:13:29.478Z,11.78
2019-04-05T06:15:59.696Z,11.43
2019-04-05T06:18:28.568Z,11.03
2019-04-05T06:20:57.442Z,11.00
2019-04-05T06:23:33.463Z,10.68
2019-04-05T06:25:58.104Z,11.12
2019-04-05T06:28:27.222Z,9.93
2019-04-05T06:30:56.036Z,10.00
2019-04-05T06:33:31.308Z,10.58
2019-04-05T06:35:56.557Z,9.68
2019-04-05T06:38:25.394Z,9.38
2019-04-05T06:40:54.240Z,8.75
2019-04-05T06:43:23.118Z,9.13
2019-04-05T06:45:53.052Z,7.10
2019-04-05T06:48:21.851Z,11.08
2019-04-05T06:50:50.795Z,10.32
2019-04-05T06:53:19.650Z,9.38
2019-04-05T06:55:48.450Z,8.58
2019-04-05T06:58:20.626Z,9.83
2019-04-05T07:00:57.036Z,15.70
2019-04-05T07:03:18.799Z,7.28
2019-04-05T07:05:47.816Z,8.30
2019-04-05T07:08:18.536Z,7.30
2019-04-05T07:10:47.437Z,6.97
2019-04-05T07:13:16.208Z,7.35
2019-04-05T07:15:45.213Z,7.65
2019-04-05T07:18:14.052Z,6.47
2019-04-05T07:20:42.948Z,6.33
2019-04-05T07:23:11.733Z,5.95
2019-04-05T07:25:41.072Z,5.67
2019-04-05T07:28:09.865Z,5.65
2019-04-05T07:30:39.337Z,6.58
2019-04-05T07:33:08.217Z,6.33
2019-04-05T07:35:37.115Z,6.20
2019-04-05T07:38:06.001Z,5.83
2019-04-05T07:40:34.915Z,5.35
2019-04-05T07:43:04.120Z,5.70
2019-04-05T07:45:32.958Z,5.42
2019-04-05T07:48:01.771Z,5.30
2019-04-05T07:50:30.724Z,5.78
2019-04-05T07:52:59.557Z,6.28
2019-04-05T07:55:28.381Z,5.80
2019-04-05T07:57:57.469Z,6.37
2019-04-05T08:00:43.750Z,5.03
2019-04-05T08:03:12.606Z,5.65
2019-04-05T08:05:41.543Z,5.50
2019-04-05T08:08:13.398Z,6.00
2019-04-05T08:10:43.166Z,4.90
2019-04-05T08:13:14.793Z,4.25
2019-04-05T08:15:44.840Z,4.50
2019-04-05T08:18:14.371Z,5.70
2019-04-05T08:20:43.236Z,4.70
2019-04-05T08:23:14.861Z,4.22
2019-04-05T08:25:44.294Z,4.62
2019-04-05T08:28:13.374Z,6.12
2019-04-05T08:30:46.815Z,14.47
2019-04-05T08:33:16.660Z,4.25
2019-04-05T08:35:45.415Z,4.67
2019-04-05T08:38:14.430Z,4.20
2019-04-05T08:40:44.656Z,4.50
2019-04-05T08:43:13.647Z,7.08
2019-04-05T08:45:42.545Z,4.55
2019-04-05T08:48:11.457Z,4.28
2019-04-05T08:50:40.263Z,4.75
2019-04-05T08:53:09.299Z,5.05
2019-04-05T08:55:38.415Z,4.15
2019-04-05T08:58:07.358Z,4.60
2019-04-05T09:00:36.461Z,4.45
2019-04-05T09:03:05.280Z,4.67
2019-04-05T09:05:34.174Z,4.45
2019-04-05T09:08:03.751Z,4.67
2019-04-05T09:10:32.763Z,4.28
2019-04-05T09:13:03.874Z,4.62
2019-04-05T09:15:32.857Z,3.40
2019-04-05T09:18:01.766Z,3.85
2019-04-05T09:20:32.117Z,4.00
2019-04-05T09:23:00.957Z,3.58
2019-04-05T09:25:30.086Z,3.95
2019-04-05T09:27:58.930Z,3.70
2019-04-05T09:30:27.766Z,3.55
2019-04-05T09:32:56.673Z,3.83
2019-04-05T09:35:25.531Z,3.80
2019-04-05T09:37:54.593Z,3.90
2019-04-05T09:40:27.100Z,4.03
2019-04-05T09:42:57.072Z,3.70
2019-04-05T09:45:27.361Z,4.00
2019-04-05T09:47:56.133Z,3.83
2019-04-05T09:50:25.031Z,4.45
2019-04-05T09:52:53.877Z,6.03
2019-04-05T09:55:22.700Z,5.65
2019-04-05T09:57:52.948Z,4.37
2019-04-05T10:00:23.458Z,4.20
2019-04-05T10:02:52.701Z,4.55
2019-04-05T10:05:21.626Z,5.70
2019-04-05T10:07:55.378Z,4.35
2019-04-05T10:10:21.108Z,4.50
2019-04-05T10:12:51.518Z,5.05
2019-04-05T10:15:21.894Z,4.85
2019-04-05T10:17:52.639Z,4.78
2019-04-05T10:20:21.595Z,7.22
2019-04-05T10:22:50.608Z,5.10
2019-04-05T10:25:19.457Z,4.85
2019-04-05T10:27:48.543Z,5.08
2019-04-05T10:30:17.418Z,4.78
2019-04-05T10:32:46.514Z,5.40
2019-04-05T10:35:15.449Z,4.67
2019-04-05T10:37:44.315Z,6.25
2019-04-05T10:40:13.210Z,4.95
2019-04-05T10:42:42.084Z,4.72
2019-04-05T10:45:12.208Z,4.55
2019-04-05T10:47:45.063Z,4.35
2019-04-05T10:50:14.987Z,4.37
2019-04-05T10:52:44.536Z,4.35
2019-04-05T10:55:14.000Z,4.30
2019-04-05T10:57:45.907Z,4.10
2019-04-05T11:00:17.175Z,3.87
2019-04-05T11:02:46.046Z,3.85
2019-04-05T11:05:15.710Z,4.42
2019-04-05T11:07:45.793Z,3.25
2019-04-05T11:10:15.041Z,3.60
2019-04-05T11:12:45.423Z,3.65
2019-04-05T11:16:16.728Z,4.40
2019-04-05T11:18:04.576Z,4.08
2019-04-05T11:21:01.526Z,4.33
2019-04-05T11:23:43.428Z,4.80
2019-04-05T11:26:16.977Z,4.80
2019-04-05T11:28:47.599Z,4.55
2019-04-05T11:31:18.669Z,5.92
2019-04-05T11:34:31.310Z,7.05
2019-04-05T11:38:17.994Z,4.00
2019-04-05T11:39:13.225Z,4.85
2019-04-05T11:41:44.572Z,3.83
2019-04-05T11:44:36.665Z,3.92
2019-04-05T11:47:07.415Z,4.75
2019-04-05T11:50:34.317Z,6.65
2019-04-05T11:55:04.786Z,4.22
2019-04-05T11:57:37.113Z,13.68
2019-04-05T12:00:40.276Z,4.50
2019-04-05T12:03:26.740Z,5.15
2019-04-05T12:06:11.567Z,5.25
2019-04-05T12:11:29.899Z,4.60
2019-04-05T12:15:10.549Z,4.65
2019-04-05T12:17:15.913Z,4.72
2019-04-05T12:19:47.699Z,5.28
2019-04-05T12:22:19.726Z,5.72
2019-04-05T12:24:47.696Z,5.62
2019-04-05T12:27:17.561Z,5.85
2019-04-05T12:29:46.447Z,5.42
2019-04-05T12:32:18.109Z,6.03
2019-04-05T12:34:46.612Z,6.97
2019-04-05T12:37:21.790Z,6.75
2019-04-05T12:39:49.070Z,5.67
2019-04-05T12:42:17.900Z,7.62
2019-04-05T12:44:55.834Z,7.92
2019-04-05T12:47:45.338Z,8.15
2019-04-05T12:53:00.457Z,10.82
2019-04-05T12:55:36.146Z,15.50
2019-04-05T12:58:05.009Z,11.12
2019-04-05T13:00:33.957Z,11.38
2019-04-05T13:06:03.085Z,12.03
2019-04-05T13:08:36.479Z,12.63
2019-04-05T13:11:08.021Z,13.43
2019-04-05T13:13:38.360Z,15.00
2019-04-05T13:16:09.813Z,18.15
2019-04-05T13:18:38.109Z,14.87
2019-04-05T13:21:15.157Z,14.87
2019-04-05T13:23:42.474Z,13.58
2019-04-05T13:26:12.556Z,15.50
2019-04-05T13:28:41.529Z,15.35
2019-04-05T13:31:12.918Z,15.03
2019-04-05T13:33:41.895Z,15.03
2019-04-05T13:36:10.785Z,15.63
2019-04-05T13:38:39.628Z,14.40
2019-04-05T13:41:08.666Z,16.50
2019-04-05T13:43:38.370Z,16.15
2019-04-05T13:46:21.037Z,16.05
2019-04-05T13:48:40.105Z,17.23
2019-04-05T13:51:11.826Z,13.90
2019-04-05T13:53:42.799Z,15.63
2019-04-05T13:56:12.927Z,16.47
2019-04-05T13:58:41.988Z,16.32
2019-04-05T14:01:11.064Z,17.12
2019-04-05T14:03:39.939Z,17.23
2019-04-05T14:06:10.679Z,18.57
2019-04-05T14:08:45.134Z,19.50
2019-04-05T14:11:16.778Z,19.73
2019-04-05T14:13:46.427Z,19.35
2019-04-05T14:16:18.480Z,18.92
2019-04-05T14:18:49.843Z,18.45
2019-04-05T14:21:22.398Z,19.37
2019-04-05T14:23:51.302Z,18.32
2019-04-05T14:26:21.048Z,18.80
2019-04-05T14:28:52.787Z,19.62
2019-04-05T14:31:20.585Z,18.73
2019-04-05T14:33:54.753Z,17.45
2019-04-05T14:36:24.043Z,16.80
2019-04-05T14:38:52.990Z,17.15
2019-04-05T14:41:23.510Z,17.12
2019-04-05T14:44:02.318Z,16.55
2019-04-05T14:46:29.193Z,15.68
2019-04-05T14:49:13.577Z,16.42
2019-04-05T14:51:54.996Z,16.50
2019-04-05T14:54:26.834Z,17.32
2019-04-05T14:57:05.971Z,15.13
2019-04-05T14:59:48.581Z,15.75
2019-04-05T15:02:06.191Z,15.53
2019-04-05T15:07:20.931Z,14.78
2019-04-05T15:09:43.961Z,14.30
2019-04-05T15:12:16.952Z,14.68
2019-04-05T15:15:02.059Z,14.95
2019-04-05T15:17:47.785Z,14.75
2019-04-05T15:20:19.632Z,14.20
2019-04-05T15:22:50.146Z,13.40
2019-04-05T15:25:21.615Z,14.05
2019-04-05T15:28:02.432Z,14.55
2019-04-05T15:30:36.546Z,15.23
2019-04-05T15:33:06.906Z,14.83
2019-04-05T15:35:38.847Z,13.95
2019-04-05T15:38:10.696Z,13.93
2019-04-05T15:40:43.805Z,14.23
2019-04-05T15:43:12.625Z,13.88
2019-04-05T15:45:42.837Z,13.32
2019-04-05T15:48:12.000Z,12.80
2019-04-05T15:50:40.939Z,13.20
2019-04-05T15:53:09.913Z,13.45
2019-04-05T15:55:38.870Z,12.63
2019-04-05T15:58:09.523Z,12.25
2019-04-05T16:00:50.754Z,12.55
2019-04-05T16:03:21.016Z,13.08
2019-04-05T16:05:50.049Z,12.93
2019-04-05T16:08:23.218Z,12.07
2019-04-05T16:10:52.197Z,12.75
2019-04-05T16:13:23.470Z,12.10
2019-04-05T16:15:52.132Z,11.75
2019-04-05T16:18:24.753Z,11.15
2019-04-05T16:20:58.867Z,11.57
2019-04-05T16:23:47.536Z,10.97
2019-04-05T16:26:18.095Z,11.43
2019-04-05T16:28:46.952Z,10.60
2019-04-05T16:31:15.773Z,10.93
2019-04-05T16:33:44.801Z,11.38
2019-04-05T16:36:17.944Z,10.93
2019-04-05T16:38:48.307Z,11.50
2019-04-05T16:41:23.255Z,9.98
2019-04-05T16:43:49.446Z,9.43
2019-04-05T16:46:18.580Z,8.75
2019-04-05T16:48:47.492Z,10.40
2019-04-05T16:51:16.424Z,10.35
2019-04-05T16:54:04.485Z,9.68
2019-04-05T16:56:35.209Z,10.43
2019-04-05T16:59:04.269Z,12.00
2019-04-05T17:01:33.110Z,15.08
2019-04-05T17:04:03.257Z,18.30
2019-04-05T17:06:32.717Z,20.10
2019-04-05T17:09:07.447Z,26.97
2019-04-05T17:11:36.713Z,19.82
2019-04-05T17:14:05.566Z,20.37
2019-04-05T17:16:37.284Z,21.35
2019-04-05T17:19:06.120Z,20.55
2019-04-05T17:21:36.572Z,22.62
2019-04-05T17:24:11.116Z,22.58
2019-04-05T17:26:39.623Z,23.27
2019-04-05T17:29:11.779Z,23.10
2019-04-05T17:31:40.640Z,23.83
2019-04-05T17:34:09.680Z,24.20
2019-04-05T17:36:43.869Z,24.27
2019-04-05T17:39:14.411Z,24.75
2019-04-05T17:41:43.315Z,26.17
2019-04-05T17:44:12.119Z,27.05
2019-04-05T17:46:41.036Z,25.43
2019-04-05T17:49:09.900Z,27.00
2019-04-05T17:51:40.408Z,25.82
2019-04-05T17:54:09.898Z,26.10
2019-04-05T17:56:42.818Z,26.70
2019-04-05T17:59:13.473Z,26.60
2019-04-05T18:01:43.735Z,26.05
2019-04-05T18:04:12.515Z,25.85
2019-04-05T18:06:41.462Z,24.10
2019-04-05T18:09:10.570Z,24.87
2019-04-05T18:11:39.415Z,25.02
2019-04-05T18:14:08.317Z,23.85
2019-04-05T18:16:39.940Z,23.95
2019-04-05T18:19:08.776Z,25.32
2019-04-05T18:21:37.569Z,30.10
2019-04-05T18:24:09.483Z,27.67
2019-04-05T18:26:38.291Z,28.10
2019-04-05T18:29:09.819Z,29.82
2019-04-05T18:31:38.631Z,29.30
2019-04-05T18:34:07.477Z,29.37
2019-04-05T18:36:36.392Z,31.60
2019-04-05T18:39:07.204Z,31.75
2019-04-05T18:41:36.087Z,32.25
2019-04-05T18:44:06.696Z,32.25
2019-04-05T18:46:35.639Z,34.92
2019-04-05T18:49:05.999Z,34.88
2019-04-05T18:51:45.982Z,33.90
2019-04-05T18:54:17.821Z,32.08
2019-04-05T18:56:46.662Z,31.10
2019-04-05T18:59:15.502Z,30.37
2019-04-05T19:01:44.255Z,28.87
2019-04-05T19:04:13.104Z,28.92
2019-04-05T19:06:41.996Z,27.70
2019-04-05T19:09:12.086Z,26.15
2019-04-05T19:11:41.164Z,25.60
2019-04-05T19:14:10.023Z,26.65
2019-04-05T19:16:38.801Z,26.65
2019-04-05T19:19:07.801Z,26.42
2019-04-05T19:21:36.593Z,26.80
2019-04-05T19:24:13.311Z,26.35
2019-04-05T19:26:56.204Z,27.10
2019-04-05T19:29:12.737Z,26.48
2019-04-05T19:49:18.697Z,31.17
2019-04-05T19:51:47.580Z,30.12
2019-04-05T19:54:16.424Z,31.07
2019-04-05T19:56:45.341Z,32.20
2019-04-05T19:59:14.169Z,30.27
2019-04-05T20:01:42.922Z,31.93
2019-04-05T20:04:12.801Z,32.33
2019-04-05T20:06:41.563Z,32.80
2019-04-05T20:09:10.404Z,35.15
2019-04-05T20:11:39.276Z,35.52
2019-04-05T20:14:08.137Z,36.40
2019-04-05T20:16:37.054Z,37.00
2019-04-05T20:19:05.926Z,36.20
2019-04-05T20:21:34.774Z,37.60
2019-04-05T20:24:13.537Z,37.48
2019-04-05T20:26:33.967Z,38.53
2019-04-05T20:29:02.940Z,39.05
2019-04-05T20:31:31.712Z,38.38
2019-04-05T20:34:00.787Z,40.30
2019-04-05T20:36:29.560Z,40.78
2019-04-05T20:38:58.415Z,40.58
2019-04-05T20:41:27.240Z,41.15
2019-04-05T20:43:58.691Z,42.40
2019-04-05T20:46:27.595Z,43.10
2019-04-05T20:48:56.523Z,43.35
2019-04-05T20:51:25.352Z,44.03
2019-04-05T20:53:54.256Z,45.55
2019-04-05T20:56:23.109Z,42.23
2019-04-05T20:58:51.961Z,45.48
2019-04-05T21:01:20.914Z,46.33
2019-04-05T21:03:51.455Z,46.20
2019-04-05T21:06:22.020Z,45.95
2019-04-05T21:08:50.868Z,44.98
2019-04-05T21:11:27.210Z,45.70
2019-04-05T21:14:01.050Z,44.03
2019-04-05T21:16:31.349Z,47.35
2019-04-05T21:19:00.209Z,45.98
2019-04-05T21:21:30.777Z,47.65
2019-04-05T21:24:01.930Z,48.05
2019-04-05T21:26:30.756Z,47.30
2019-04-05T21:29:05.955Z,46.50
2019-04-05T21:31:33.882Z,46.15
2019-04-05T21:34:02.793Z,47.25
2019-04-05T21:36:37.138Z,46.77
2019-04-05T21:39:10.144Z,48.48
2019-04-05T21:41:39.061Z,47.23
2019-04-05T21:44:07.899Z,45.03
2019-04-05T21:46:36.752Z,47.33
2019-04-05T21:49:08.278Z,45.15
2019-04-05T21:51:37.142Z,46.37
2019-04-05T21:54:06.032Z,43.40
2019-04-05T21:56:36.410Z,44.73
2019-04-05T21:59:05.239Z,42.67
2019-04-05T22:01:34.332Z,44.83
2019-04-05T22:04:03.170Z,41.83
2019-04-05T22:06:32.375Z,43.80
2019-04-05T22:09:01.281Z,41.53
2019-04-05T22:11:30.140Z,41.37
2019-04-05T22:13:59.054Z,41.42
2019-04-05T22:16:47.483Z,42.85
2019-04-05T22:19:12.177Z,41.20
2019-04-05T22:21:43.935Z,42.08
2019-04-05T22:24:16.637Z,40.88
2019-04-05T22:26:45.462Z,41.23
2019-04-05T22:29:14.334Z,41.05
2019-04-05T22:31:43.272Z,39.50
2019-04-05T22:34:12.110Z,43.10
2019-04-05T22:36:43.115Z,41.23
2019-04-05T22:39:11.991Z,42.62
2019-04-05T22:41:40.862Z,39.90
2019-04-05T22:44:09.699Z,42.10
2019-04-05T22:46:38.522Z,42.13
2019-04-05T22:49:07.434Z,41.30
2019-04-05T22:51:36.299Z,44.63
2019-04-05T22:54:05.093Z,45.78
2019-04-05T22:56:34.008Z,40.83
2019-04-05T22:59:02.875Z,42.25
2019-04-05T23:01:31.786Z,42.67
2019-04-05T23:04:00.662Z,44.40
2019-04-05T23:06:29.531Z,44.67
2019-04-05T23:08:58.453Z,43.25
2019-04-05T23:11:27.454Z,42.35
2019-04-05T23:13:56.374Z,43.00
2019-04-05T23:16:26.707Z,44.40
2019-04-05T23:18:55.644Z,44.77
2019-04-05T23:21:27.105Z,43.50
2019-04-05T23:23:55.890Z,44.67
2019-04-05T23:26:24.790Z,43.92
2019-04-05T23:28:53.678Z,44.38
2019-04-05T23:31:23.082Z,44.03
2019-04-05T23:33:52.038Z,43.15
2019-04-05T23:36:23.875Z,47.25
2019-04-05T23:38:52.741Z,44.63
2019-04-05T23:41:23.271Z,43.65
2019-04-05T23:43:52.131Z,45.40
2019-04-05T23:46:21.044Z,45.52
2019-04-05T23:48:51.407Z,45.43
2019-04-05T23:51:20.655Z,44.90
2019-04-05T23:53:49.543Z,45.08
2019-04-05T23:56:19.397Z,45.65
2019-04-05T23:58:48.325Z,46.33
